This is the latest recevied weather packets stored in our database for station/object N6RDS. If no packets are shown the sender has not sent any weather packets the latest 1 day(s).
| Time | Temp. | Humidity | Pressure | Rain* | Wind** | Luminosity | Snow |
|---|---|---|---|---|---|---|---|
| 1778087024 | 15.56° C | 39% | 1024.7 hPa | 0 mm | - | 630 W/m² | - |
| 1778086421 | 13.89° C | 39% | 1024.5 hPa | 0 mm | - | 609 W/m² | - |
| 1778086117 | 13.89° C | 38% | 1024.4 hPa | 0 mm | - | 599 W/m² | - |
| 1778084594 | 12.78° C | 43% | 1024.3 hPa | 0 mm | - | 539 W/m² | - |
| 1778083988 | 12.78° C | 42% | 1024.4 hPa | 0 mm | - | 511 W/m² | - |
| 1778083076 | 12.78° C | 46% | 1024.2 hPa | 0 mm | - | 466 W/m² | - |
| 1778081644 | 11.11° C | 49% | 1024.3 hPa | 0 mm | - | 393 W/m² | - |
| 1778081341 | 10.56° C | 50% | 1024.4 hPa | 0 mm | - | 377 W/m² | - |
| 1778081038 | 10.56° C | 50% | 1024.3 hPa | 0 mm | - | 360 W/m² | - |
| 1778080433 | 10° C | 50% | 1024.2 hPa | 0 mm | - | 325 W/m² | - |
| 1778079220 | 8.89° C | 57% | 1023.9 hPa | 0 mm | - | 219 W/m² | - |
| 1778078918 | 8.89° C | 58% | 1023.9 hPa | 0 mm | - | 186 W/m² | - |
| 1778078614 | 8.33° C | 56% | 1024.3 hPa | 0 mm | - | 169 W/m² | - |
| 1778078009 | 8.33° C | 62% | 1024.3 hPa | 0 mm | - | 145 W/m² | - |
| 1778077405 | 7.22° C | 67% | 1024.3 hPa | 0 mm | - | 125 W/m² | - |
| 1778076801 | 5.56° C | 73% | 1023.9 hPa | 0 mm | - | 108 W/m² | - |
| 1778074679 | 0.56° C | 96% | 1023.9 hPa | 0 mm | - | 71 W/m² | - |
| 1778072860 | -2.22° C | 96% | 1023.9 hPa | 0 mm | - | 28 W/m² | - |
| 1778072557 | -2.78° C | 96% | 1023.9 hPa | 0 mm | - | 15 W/m² | - |
| 1778071953 | -2.78° C | 96% | 1023.8 hPa | 0 mm | - | 10 W/m² | - |
| 1778070138 | -2.78° C | 96% | 1023.7 hPa | 0 mm | - | 1 W/m² | - |
| 1778069836 | -2.78° C | 96% | 1023.3 hPa | 0 mm | - | 0 W/m² | - |
| 1778069230 | -2.78° C | 96% | 1022.9 hPa | 0 mm | - | 0 W/m² | - |
| 1778067718 | -2.78° C | 96% | 1023.1 hPa | 0 mm | - | 0 W/m² | - |
| 1778066809 | -2.22° C | 96% | 1022.9 hPa | 0 mm | - | 0 W/m² | - |
* Rain latest hour (hover to see other rain measurements)
** Current wind speed in m/s (hover to see current wind gust speed)